Airfield :
LOGIN :

Register | Disclaimer

   EN    FR    IT 

 










Legend :    VFR   Marginal VFR   IFR   Intensive IFR   Very Intensive IFR
Visi :
Ceiling :
>= 8 km
>= 3000ft
5 to 8 km
1000 to 3000 ft
1500m to 5 km
500 to 1000 ft
800 to 1500m
200 to 500 ft
< 800m
< 200 ft
Symbols :   Thunderstorms  Fog  Heavy snow  Heavy precipitations  Wind > 20 kt
SIGMETs :     Misc.  Thunderstorms  Icing  Turbulence  Mountain Waves  Volcanic Ashes






- Airport Elevation : 215 ft
- IATA code : TAR


LIBG - Grottaglie Arpt. Taranto

CURRENT METAR :
  • 041450Z 18005KT 150V230 CAVOK 34/16 Q1013

EXPIRED METARs :
  • 041350Z 18008KT 150V220 CAVOK 35/12 Q1012
  • 041250Z 18006KT 150V210 CAVOK 35/13 Q1013

TAF TAF LIBG
Valid from the 04 at 15:00 until the 05 at 00:00 UTC


041400Z 0415/0424 17010KT CAVOK
BECMG 0417/0419 VRB05KT



MET'MAP, your aeronautical weather chart ! - Copyright ORBIFLY December 2007 - Disclaimer

ORBIFLY MET'MAP TEAM :

Programming & Development : Alexandra Zaïnal
Concept & original design : Baudouin d'Aumeries
Assistance for programming : Marc-Olivier Méhu
Technical & hardware support : Manuel Goepfert

Contact : metmap@orbifly.com




SOURCES & CREDITS :

   NOAA